sensor_id;sensor_type;location;lat;lon;timestamp;pressure;altitude;pressure_sealevel;temperature;humidity
7026;BME280;3554;42.132;24.786;2023-02-22T00:01:31;99149.25;;;14.56;43.54
7026;BME280;3554;42.132;24.786;2023-02-22T00:04:01;99160.13;;;14.64;43.24
7026;BME280;3554;42.132;24.786;2023-02-22T00:06:28;99166.28;;;14.64;43.12
7026;BME280;3554;42.132;24.786;2023-02-22T00:08:57;99161.09;;;14.77;42.80
7026;BME280;3554;42.132;24.786;2023-02-22T00:11:24;99172.13;;;14.83;42.70
7026;BME280;3554;42.132;24.786;2023-02-22T00:13:51;99167.59;;;14.85;42.82
7026;BME280;3554;42.132;24.786;2023-02-22T00:16:22;99167.41;;;14.88;42.68
7026;BME280;3554;42.132;24.786;2023-02-22T00:18:50;99156.59;;;14.79;42.82
7026;BME280;3554;42.132;24.786;2023-02-22T00:21:17;99165.72;;;14.87;42.78
7026;BME280;3554;42.132;24.786;2023-02-22T00:23:46;99169.88;;;14.91;42.82
7026;BME280;3554;42.132;24.786;2023-02-22T00:26:16;99171.75;;;14.89;42.76
7026;BME280;3554;42.132;24.786;2023-02-22T00:28:45;99171.34;;;14.95;42.68
7026;BME280;3554;42.132;24.786;2023-02-22T00:31:12;99155.19;;;14.87;42.81
7026;BME280;3554;42.132;24.786;2023-02-22T00:33:39;99172.22;;;14.96;42.74
7026;BME280;3554;42.132;24.786;2023-02-22T00:36:07;99153.75;;;14.96;42.71
7026;BME280;3554;42.132;24.786;2023-02-22T00:38:33;99160.91;;;14.94;42.68
7026;BME280;3554;42.132;24.786;2023-02-22T00:41:00;99165.97;;;14.97;42.79
7026;BME280;3554;42.132;24.786;2023-02-22T00:43:28;99166.28;;;15.07;42.53
7026;BME280;3554;42.132;24.786;2023-02-22T00:45:55;99165.50;;;15.04;42.74
7026;BME280;3554;42.132;24.786;2023-02-22T00:48:22;99172.50;;;15.06;42.59
7026;BME280;3554;42.132;24.786;2023-02-22T00:50:49;99168.63;;;14.97;43.09
7026;BME280;3554;42.132;24.786;2023-02-22T00:53:20;99172.97;;;14.98;42.83
7026;BME280;3554;42.132;24.786;2023-02-22T00:55:47;99181.63;;;15.00;43.03
7026;BME280;3554;42.132;24.786;2023-02-22T00:58:13;99177.56;;;14.94;43.22
7026;BME280;3554;42.132;24.786;2023-02-22T01:00:42;99168.72;;;14.81;43.51
7026;BME280;3554;42.132;24.786;2023-02-22T01:03:12;99175.69;;;14.68;43.86
7026;BME280;3554;42.132;24.786;2023-02-22T01:05:40;99172.09;;;14.69;43.83
7026;BME280;3554;42.132;24.786;2023-02-22T01:08:08;99184.91;;;14.75;43.98
7026;BME280;3554;42.132;24.786;2023-02-22T01:10:36;99176.81;;;14.64;44.12
7026;BME280;3554;42.132;24.786;2023-02-22T01:13:04;99177.06;;;14.60;44.40
7026;BME280;3554;42.132;24.786;2023-02-22T01:15:33;99175.69;;;14.68;44.26
7026;BME280;3554;42.132;24.786;2023-02-22T01:18:02;99175.50;;;14.71;44.12
7026;BME280;3554;42.132;24.786;2023-02-22T01:20:30;99163.91;;;14.74;44.16
7026;BME280;3554;42.132;24.786;2023-02-22T01:22:59;99167.69;;;14.70;44.54
7026;BME280;3554;42.132;24.786;2023-02-22T01:25:29;99153.28;;;14.61;44.40
7026;BME280;3554;42.132;24.786;2023-02-22T01:27:57;99172.56;;;14.76;44.47
7026;BME280;3554;42.132;24.786;2023-02-22T01:30:27;99168.16;;;14.76;44.50
7026;BME280;3554;42.132;24.786;2023-02-22T01:32:54;99160.59;;;14.70;44.41
7026;BME280;3554;42.132;24.786;2023-02-22T01:35:25;99171.09;;;14.72;44.52
7026;BME280;3554;42.132;24.786;2023-02-22T01:37:53;99164.75;;;14.60;44.54
7026;BME280;3554;42.132;24.786;2023-02-22T01:40:32;99166.47;;;14.61;44.84
7026;BME280;3554;42.132;24.786;2023-02-22T01:43:01;99163.41;;;14.53;45.00
7026;BME280;3554;42.132;24.786;2023-02-22T01:45:47;99153.25;;;14.47;45.37
7026;BME280;3554;42.132;24.786;2023-02-22T01:48:18;99156.63;;;14.49;45.36
7026;BME280;3554;42.132;24.786;2023-02-22T01:50:49;99118.00;;;14.20;45.36
7026;BME280;3554;42.132;24.786;2023-02-22T01:53:20;99150.00;;;14.28;45.74
7026;BME280;3554;42.132;24.786;2023-02-22T01:55:49;99160.44;;;14.30;45.84
7026;BME280;3554;42.132;24.786;2023-02-22T01:58:18;99154.44;;;14.28;46.27
7026;BME280;3554;42.132;24.786;2023-02-22T02:00:46;99162.56;;;14.23;46.02
7026;BME280;3554;42.132;24.786;2023-02-22T02:03:16;99146.38;;;14.15;46.17
7026;BME280;3554;42.132;24.786;2023-02-22T02:05:44;99162.25;;;14.29;45.71
7026;BME280;3554;42.132;24.786;2023-02-22T02:08:20;99164.50;;;14.35;45.98
7026;BME280;3554;42.132;24.786;2023-02-22T02:10:52;99154.78;;;14.22;45.96
7026;BME280;3554;42.132;24.786;2023-02-22T02:13:20;99163.75;;;14.33;45.57
7026;BME280;3554;42.132;24.786;2023-02-22T02:15:46;99161.88;;;14.35;45.54
7026;BME280;3554;42.132;24.786;2023-02-22T02:18:17;99167.16;;;14.35;45.73
7026;BME280;3554;42.132;24.786;2023-02-22T02:20:51;99153.97;;;14.35;45.80
7026;BME280;3554;42.132;24.786;2023-02-22T02:23:52;99164.25;;;14.24;45.81
7026;BME280;3554;42.132;24.786;2023-02-22T02:26:40;99166.16;;;14.22;46.12
7026;BME280;3554;42.132;24.786;2023-02-22T02:32:24;99158.66;;;14.01;46.66
7026;BME280;3554;42.132;24.786;2023-02-22T02:34:57;99170.44;;;14.09;46.75
7026;BME280;3554;42.132;24.786;2023-02-22T02:37:34;99176.72;;;14.07;46.88
7026;BME280;3554;42.132;24.786;2023-02-22T02:40:10;99168.31;;;14.00;46.81
7026;BME280;3554;42.132;24.786;2023-02-22T02:42:49;99166.38;;;14.04;46.71
7026;BME280;3554;42.132;24.786;2023-02-22T02:45:22;99123.88;;;13.80;46.50
7026;BME280;3554;42.132;24.786;2023-02-22T02:47:54;99170.78;;;14.03;46.85
7026;BME280;3554;42.132;24.786;2023-02-22T02:50:25;99183.94;;;14.03;46.63
7026;BME280;3554;42.132;24.786;2023-02-22T02:52:56;99178.09;;;13.98;46.73
7026;BME280;3554;42.132;24.786;2023-02-22T02:55:26;99182.25;;;14.02;46.22
7026;BME280;3554;42.132;24.786;2023-02-22T02:57:53;99141.63;;;13.76;46.25
7026;BME280;3554;42.132;24.786;2023-02-22T03:00:25;99185.19;;;14.12;45.96
7026;BME280;3554;42.132;24.786;2023-02-22T03:03:06;99189.09;;;14.05;46.01
7026;BME280;3554;42.132;24.786;2023-02-22T03:05:57;99194.31;;;14.06;46.07
7026;BME280;3554;42.132;24.786;2023-02-22T03:08:30;99189.28;;;14.02;46.42
7026;BME280;3554;42.132;24.786;2023-02-22T03:11:05;99191.66;;;14.06;46.81
7026;BME280;3554;42.132;24.786;2023-02-22T03:13:44;99192.81;;;13.86;46.99
7026;BME280;3554;42.132;24.786;2023-02-22T03:16:19;99199.25;;;13.81;46.79
7026;BME280;3554;42.132;24.786;2023-02-22T03:18:53;99195.13;;;13.61;47.54
7026;BME280;3554;42.132;24.786;2023-02-22T03:21:25;99187.28;;;13.29;48.70
7026;BME280;3554;42.132;24.786;2023-02-22T03:24:01;99201.31;;;13.12;50.18
7026;BME280;3554;42.132;24.786;2023-02-22T03:26:34;99206.34;;;13.00;51.00
7026;BME280;3554;42.132;24.786;2023-02-22T03:29:07;99208.19;;;12.48;52.86
7026;BME280;3554;42.132;24.786;2023-02-22T03:31:39;99208.78;;;12.02;55.22
7026;BME280;3554;42.132;24.786;2023-02-22T03:34:12;99216.53;;;11.69;57.03
7026;BME280;3554;42.132;24.786;2023-02-22T03:36:45;99216.72;;;11.83;57.19
7026;BME280;3554;42.132;24.786;2023-02-22T03:39:15;99223.56;;;12.04;56.15
7026;BME280;3554;42.132;24.786;2023-02-22T03:41:47;99216.00;;;12.15;55.53
7026;BME280;3554;42.132;24.786;2023-02-22T03:44:21;99223.81;;;12.17;55.87
7026;BME280;3554;42.132;24.786;2023-02-22T03:46:51;99220.75;;;12.07;56.04
7026;BME280;3554;42.132;24.786;2023-02-22T03:49:26;99220.31;;;11.99;56.92
7026;BME280;3554;42.132;24.786;2023-02-22T03:51:57;99209.56;;;11.87;56.93
7026;BME280;3554;42.132;24.786;2023-02-22T03:54:25;99217.34;;;11.88;57.49
7026;BME280;3554;42.132;24.786;2023-02-22T03:56:55;99220.13;;;11.85;57.81
7026;BME280;3554;42.132;24.786;2023-02-22T03:59:24;99221.19;;;11.81;58.07
7026;BME280;3554;42.132;24.786;2023-02-22T04:01:53;99162.41;;;11.49;57.84
7026;BME280;3554;42.132;24.786;2023-02-22T04:04:20;99202.59;;;11.85;57.07
7026;BME280;3554;42.132;24.786;2023-02-22T04:06:50;99196.59;;;11.83;57.66
7026;BME280;3554;42.132;24.786;2023-02-22T04:09:18;99230.97;;;11.96;56.72
7026;BME280;3554;42.132;24.786;2023-02-22T04:11:46;99215.50;;;11.90;56.91
7026;BME280;3554;42.132;24.786;2023-02-22T04:14:13;99179.22;;;11.62;56.03
7026;BME280;3554;42.132;24.786;2023-02-22T04:16:39;99221.38;;;11.95;56.27
7026;BME280;3554;42.132;24.786;2023-02-22T04:19:06;99225.81;;;12.12;55.45
7026;BME280;3554;42.132;24.786;2023-02-22T04:21:33;99224.75;;;12.16;54.28
7026;BME280;3554;42.132;24.786;2023-02-22T04:24:01;99229.03;;;12.17;53.99
7026;BME280;3554;42.132;24.786;2023-02-22T04:26:28;99235.16;;;12.17;53.96
7026;BME280;3554;42.132;24.786;2023-02-22T04:28:55;99228.50;;;12.27;53.53
7026;BME280;3554;42.132;24.786;2023-02-22T04:31:21;99222.31;;;12.28;52.88
7026;BME280;3554;42.132;24.786;2023-02-22T04:33:48;99226.66;;;12.29;52.79
7026;BME280;3554;42.132;24.786;2023-02-22T04:36:15;99196.25;;;12.25;52.55
7026;BME280;3554;42.132;24.786;2023-02-22T04:38:42;99225.88;;;12.44;52.36
7026;BME280;3554;42.132;24.786;2023-02-22T04:41:11;99227.81;;;12.41;52.30
7026;BME280;3554;42.132;24.786;2023-02-22T04:43:37;99227.34;;;12.50;51.93
7026;BME280;3554;42.132;24.786;2023-02-22T04:46:04;99225.59;;;12.50;51.56
7026;BME280;3554;42.132;24.786;2023-02-22T04:48:31;99220.63;;;12.44;52.20
7026;BME280;3554;42.132;24.786;2023-02-22T04:50:58;99218.19;;;12.58;51.39
7026;BME280;3554;42.132;24.786;2023-02-22T04:53:24;99219.19;;;12.56;51.13
7026;BME280;3554;42.132;24.786;2023-02-22T04:55:51;99224.75;;;12.67;51.16
7026;BME280;3554;42.132;24.786;2023-02-22T04:58:20;99214.75;;;12.73;50.32
7026;BME280;3554;42.132;24.786;2023-02-22T05:00:47;99219.69;;;12.79;50.16
7026;BME280;3554;42.132;24.786;2023-02-22T05:03:13;99215.00;;;13.02;49.70
7026;BME280;3554;42.132;24.786;2023-02-22T05:05:40;99214.03;;;13.04;49.11
7026;BME280;3554;42.132;24.786;2023-02-22T05:08:07;99223.13;;;13.14;48.53
7026;BME280;3554;42.132;24.786;2023-02-22T05:10:34;99228.50;;;13.28;48.10
7026;BME280;3554;42.132;24.786;2023-02-22T05:13:01;99227.47;;;13.15;47.82
7026;BME280;3554;42.132;24.786;2023-02-22T05:15:29;99223.41;;;13.25;47.63
7026;BME280;3554;42.132;24.786;2023-02-22T05:17:57;99186.38;;;12.97;48.01
7026;BME280;3554;42.132;24.786;2023-02-22T05:20:25;99218.56;;;13.18;47.82
7026;BME280;3554;42.132;24.786;2023-02-22T05:22:53;99228.38;;;13.14;47.88
7026;BME280;3554;42.132;24.786;2023-02-22T05:25:20;99222.22;;;13.15;48.17
7026;BME280;3554;42.132;24.786;2023-02-22T05:27:51;99236.19;;;13.16;48.60
7026;BME280;3554;42.132;24.786;2023-02-22T05:30:18;99232.78;;;13.14;48.89
7026;BME280;3554;42.132;24.786;2023-02-22T05:32:49;99232.25;;;13.24;48.87
7026;BME280;3554;42.132;24.786;2023-02-22T05:35:16;99231.56;;;13.21;49.10
7026;BME280;3554;42.132;24.786;2023-02-22T05:37:43;99228.06;;;13.20;48.72
7026;BME280;3554;42.132;24.786;2023-02-22T05:40:10;99242.09;;;13.36;48.58
7026;BME280;3554;42.132;24.786;2023-02-22T05:42:39;99240.47;;;13.34;48.41
7026;BME280;3554;42.132;24.786;2023-02-22T05:45:06;99228.75;;;13.39;48.47
7026;BME280;3554;42.132;24.786;2023-02-22T05:47:33;99233.44;;;13.50;48.14
7026;BME280;3554;42.132;24.786;2023-02-22T05:50:01;99236.34;;;13.61;47.93
7026;BME280;3554;42.132;24.786;2023-02-22T05:52:28;99248.22;;;13.68;47.83
7026;BME280;3554;42.132;24.786;2023-02-22T05:54:55;99250.25;;;13.78;47.05
7026;BME280;3554;42.132;24.786;2023-02-22T05:57:22;99250.59;;;13.88;47.05
7026;BME280;3554;42.132;24.786;2023-02-22T05:59:49;99248.66;;;13.91;47.28
7026;BME280;3554;42.132;24.786;2023-02-22T06:02:15;99259.44;;;14.03;46.88
7026;BME280;3554;42.132;24.786;2023-02-22T06:04:44;99213.59;;;13.91;46.61
7026;BME280;3554;42.132;24.786;2023-02-22T06:07:13;99251.84;;;14.12;46.62
7026;BME280;3554;42.132;24.786;2023-02-22T06:09:40;99265.84;;;14.28;46.77
7026;BME280;3554;42.132;24.786;2023-02-22T06:12:07;99268.97;;;14.35;46.71
7026;BME280;3554;42.132;24.786;2023-02-22T06:14:35;99260.06;;;14.37;46.38
7026;BME280;3554;42.132;24.786;2023-02-22T06:17:02;99262.44;;;14.42;46.57
7026;BME280;3554;42.132;24.786;2023-02-22T06:19:29;99265.09;;;14.42;46.40
7026;BME280;3554;42.132;24.786;2023-02-22T06:21:57;99269.06;;;14.49;46.75
7026;BME280;3554;42.132;24.786;2023-02-22T06:24:25;99272.19;;;14.55;46.68
7026;BME280;3554;42.132;24.786;2023-02-22T06:26:54;99270.94;;;14.47;46.65
7026;BME280;3554;42.132;24.786;2023-02-22T06:29:21;99271.59;;;14.50;46.86
7026;BME280;3554;42.132;24.786;2023-02-22T06:31:48;99278.16;;;14.43;46.83
7026;BME280;3554;42.132;24.786;2023-02-22T06:34:15;99271.78;;;14.32;47.49
7026;BME280;3554;42.132;24.786;2023-02-22T06:36:41;99284.38;;;14.27;47.26
7026;BME280;3554;42.132;24.786;2023-02-22T06:39:08;99271.47;;;14.22;47.47
7026;BME280;3554;42.132;24.786;2023-02-22T06:41:38;99280.19;;;14.23;47.41
7026;BME280;3554;42.132;24.786;2023-02-22T06:44:05;99252.25;;;14.05;47.82
7026;BME280;3554;42.132;24.786;2023-02-22T06:46:32;99282.81;;;14.23;47.72
7026;BME280;3554;42.132;24.786;2023-02-22T06:48:59;99285.72;;;14.18;47.96
7026;BME280;3554;42.132;24.786;2023-02-22T06:51:26;99285.56;;;14.06;48.29
7026;BME280;3554;42.132;24.786;2023-02-22T06:53:53;99278.59;;;14.05;48.22
7026;BME280;3554;42.132;24.786;2023-02-22T06:56:20;99287.94;;;14.10;48.58
7026;BME280;3554;42.132;24.786;2023-02-22T06:58:48;99287.94;;;14.41;48.23
7026;BME280;3554;42.132;24.786;2023-02-22T07:01:14;99286.69;;;14.62;47.62
7026;BME280;3554;42.132;24.786;2023-02-22T07:03:41;99285.63;;;14.94;47.49
7026;BME280;3554;42.132;24.786;2023-02-22T07:06:08;99286.78;;;15.19;46.44
7026;BME280;3554;42.132;24.786;2023-02-22T07:08:36;99291.66;;;15.40;46.35
7026;BME280;3554;42.132;24.786;2023-02-22T07:11:02;99294.84;;;15.59;45.54
7026;BME280;3554;42.132;24.786;2023-02-22T07:13:29;99293.06;;;15.60;45.04
7026;BME280;3554;42.132;24.786;2023-02-22T07:15:57;99294.94;;;15.58;45.88
7026;BME280;3554;42.132;24.786;2023-02-22T07:18:32;99295.00;;;15.84;45.01
7026;BME280;3554;42.132;24.786;2023-02-22T07:20:59;99292.25;;;16.00;44.79
7026;BME280;3554;42.132;24.786;2023-02-22T07:23:26;99292.16;;;16.01;44.39
7026;BME280;3554;42.132;24.786;2023-02-22T07:25:52;99299.56;;;16.23;44.52
7026;BME280;3554;42.132;24.786;2023-02-22T07:28:19;99290.41;;;16.41;43.71
7026;BME280;3554;42.132;24.786;2023-02-22T07:30:46;99295.38;;;16.60;43.65
7026;BME280;3554;42.132;24.786;2023-02-22T07:33:13;99295.31;;;16.74;42.82
7026;BME280;3554;42.132;24.786;2023-02-22T07:35:44;99285.91;;;16.82;42.74
7026;BME280;3554;42.132;24.786;2023-02-22T07:38:13;99287.81;;;16.93;41.83
7026;BME280;3554;42.132;24.786;2023-02-22T07:40:41;99264.34;;;16.88;42.08
7026;BME280;3554;42.132;24.786;2023-02-22T07:43:14;99248.25;;;16.79;42.29
7026;BME280;3554;42.132;24.786;2023-02-22T07:45:41;99275.06;;;17.12;41.95
7026;BME280;3554;42.132;24.786;2023-02-22T07:48:08;99279.38;;;17.26;41.79
7026;BME280;3554;42.132;24.786;2023-02-22T07:50:37;99279.16;;;17.29;41.35
7026;BME280;3554;42.132;24.786;2023-02-22T07:53:09;99242.34;;;17.13;41.63
7026;BME280;3554;42.132;24.786;2023-02-22T07:55:37;99277.50;;;17.53;41.25
7026;BME280;3554;42.132;24.786;2023-02-22T07:58:05;99284.34;;;17.68;40.74
7026;BME280;3554;42.132;24.786;2023-02-22T08:00:34;99242.03;;;17.55;40.53
7026;BME280;3554;42.132;24.786;2023-02-22T08:03:03;99277.00;;;17.84;39.86
7026;BME280;3554;42.132;24.786;2023-02-22T08:05:31;99226.34;;;17.65;39.95
7026;BME280;3554;42.132;24.786;2023-02-22T08:07:58;99273.91;;;18.02;39.52
7026;BME280;3554;42.132;24.786;2023-02-22T08:10:26;99269.63;;;18.12;39.86
7026;BME280;3554;42.132;24.786;2023-02-22T08:12:54;99259.03;;;18.12;39.30
7026;BME280;3554;42.132;24.786;2023-02-22T08:15:23;99270.31;;;18.27;39.11
7026;BME280;3554;42.132;24.786;2023-02-22T08:17:50;99257.44;;;18.34;39.36
7026;BME280;3554;42.132;24.786;2023-02-22T08:20:18;99263.28;;;18.39;39.12
7026;BME280;3554;42.132;24.786;2023-02-22T08:22:44;99263.44;;;18.48;39.35
7026;BME280;3554;42.132;24.786;2023-02-22T08:25:12;99259.38;;;18.55;38.65
7026;BME280;3554;42.132;24.786;2023-02-22T08:27:41;99257.84;;;18.64;38.45
7026;BME280;3554;42.132;24.786;2023-02-22T08:30:12;99261.03;;;18.80;38.77
7026;BME280;3554;42.132;24.786;2023-02-22T08:32:39;99256.44;;;18.82;38.26
7026;BME280;3554;42.132;24.786;2023-02-22T08:35:06;99253.75;;;18.71;38.33
7026;BME280;3554;42.132;24.786;2023-02-22T08:37:33;99254.91;;;18.79;38.45
7026;BME280;3554;42.132;24.786;2023-02-22T08:40:00;99245.22;;;18.78;38.35
7026;BME280;3554;42.132;24.786;2023-02-22T08:42:27;99247.63;;;18.70;38.42
7026;BME280;3554;42.132;24.786;2023-02-22T08:44:55;99222.53;;;18.63;38.68
7026;BME280;3554;42.132;24.786;2023-02-22T08:47:22;99246.25;;;18.88;38.48
7026;BME280;3554;42.132;24.786;2023-02-22T08:49:48;99233.94;;;18.98;38.74
7026;BME280;3554;42.132;24.786;2023-02-22T08:52:15;99238.78;;;18.93;38.46
7026;BME280;3554;42.132;24.786;2023-02-22T08:54:44;99237.59;;;18.97;38.56
7026;BME280;3554;42.132;24.786;2023-02-22T08:57:11;99239.38;;;18.97;38.28
7026;BME280;3554;42.132;24.786;2023-02-22T08:59:38;99247.94;;;19.00;38.28
7026;BME280;3554;42.132;24.786;2023-02-22T09:02:13;99244.81;;;19.06;38.55
7026;BME280;3554;42.132;24.786;2023-02-22T09:04:41;99248.34;;;19.18;38.49
7026;BME280;3554;42.132;24.786;2023-02-22T09:07:08;99242.31;;;19.27;38.22
7026;BME280;3554;42.132;24.786;2023-02-22T09:09:35;99244.50;;;19.33;38.45
7026;BME280;3554;42.132;24.786;2023-02-22T09:12:03;99230.63;;;19.41;38.18
7026;BME280;3554;42.132;24.786;2023-02-22T09:14:30;99248.75;;;19.47;37.96
7026;BME280;3554;42.132;24.786;2023-02-22T09:16:57;99233.91;;;19.55;37.58
7026;BME280;3554;42.132;24.786;2023-02-22T09:19:25;99234.75;;;19.67;37.99
7026;BME280;3554;42.132;24.786;2023-02-22T09:21:52;99237.28;;;19.68;37.79
7026;BME280;3554;42.132;24.786;2023-02-22T09:24:19;99237.53;;;19.54;37.80
7026;BME280;3554;42.132;24.786;2023-02-22T09:26:46;99233.56;;;19.60;37.88
7026;BME280;3554;42.132;24.786;2023-02-22T09:29:18;99238.88;;;19.60;37.89
7026;BME280;3554;42.132;24.786;2023-02-22T09:31:48;99227.84;;;19.64;37.91
7026;BME280;3554;42.132;24.786;2023-02-22T09:34:16;99227.72;;;19.77;37.56
7026;BME280;3554;42.132;24.786;2023-02-22T09:36:46;99224.81;;;19.80;37.75
7026;BME280;3554;42.132;24.786;2023-02-22T09:39:14;99216.03;;;19.79;37.26
7026;BME280;3554;42.132;24.786;2023-02-22T09:41:49;99231.03;;;20.01;37.23
7026;BME280;3554;42.132;24.786;2023-02-22T09:44:23;99214.00;;;20.14;37.64
7026;BME280;3554;42.132;24.786;2023-02-22T09:46:53;99216.78;;;20.13;37.07
7026;BME280;3554;42.132;24.786;2023-02-22T09:49:23;99219.41;;;20.24;36.73
7026;BME280;3554;42.132;24.786;2023-02-22T09:51:57;99227.03;;;20.29;36.37
7026;BME280;3554;42.132;24.786;2023-02-22T09:54:29;99177.91;;;20.01;36.39
7026;BME280;3554;42.132;24.786;2023-02-22T09:57:02;99224.50;;;20.27;36.67
7026;BME280;3554;42.132;24.786;2023-02-22T09:59:33;99213.41;;;20.22;36.56
7026;BME280;3554;42.132;24.786;2023-02-22T10:02:09;99054.38;;;19.32;36.43
7026;BME280;3554;42.132;24.786;2023-02-22T10:04:46;99212.75;;;20.30;36.18
7026;BME280;3554;42.132;24.786;2023-02-22T10:07:23;99159.53;;;20.09;36.17
7026;BME280;3554;42.132;24.786;2023-02-22T10:09:53;99197.38;;;20.33;36.18
7026;BME280;3554;42.132;24.786;2023-02-22T10:12:28;99188.81;;;20.30;36.14
7026;BME280;3554;42.132;24.786;2023-02-22T10:15:14;99187.16;;;20.49;35.87
7026;BME280;3554;42.132;24.786;2023-02-22T10:17:52;99171.19;;;20.49;35.63
7026;BME280;3554;42.132;24.786;2023-02-22T10:20:35;99188.81;;;20.61;35.62
7026;BME280;3554;42.132;24.786;2023-02-22T10:23:13;99185.16;;;20.62;36.05
7026;BME280;3554;42.132;24.786;2023-02-22T10:25:50;99184.84;;;20.56;35.85
7026;BME280;3554;42.132;24.786;2023-02-22T10:28:21;99178.75;;;20.65;35.66
7026;BME280;3554;42.132;24.786;2023-02-22T10:30:52;99173.19;;;20.77;35.63
7026;BME280;3554;42.132;24.786;2023-02-22T10:33:22;99164.34;;;20.88;35.51
7026;BME280;3554;42.132;24.786;2023-02-22T10:35:51;99170.63;;;20.87;34.88
7026;BME280;3554;42.132;24.786;2023-02-22T10:38:22;99159.66;;;21.01;35.20
7026;BME280;3554;42.132;24.786;2023-02-22T10:40:52;99150.34;;;20.95;34.68
7026;BME280;3554;42.132;24.786;2023-02-22T10:43:20;99146.72;;;20.96;35.12
7026;BME280;3554;42.132;24.786;2023-02-22T10:45:50;99111.50;;;20.83;36.07
7026;BME280;3554;42.132;24.786;2023-02-22T10:48:21;99117.59;;;20.95;35.06
7026;BME280;3554;42.132;24.786;2023-02-22T10:50:51;99133.19;;;20.99;36.23
7026;BME280;3554;42.132;24.786;2023-02-22T10:53:21;99122.78;;;20.96;35.61
7026;BME280;3554;42.132;24.786;2023-02-22T10:56:11;99116.53;;;21.07;35.48
7026;BME280;3554;42.132;24.786;2023-02-22T10:58:40;99117.41;;;21.07;35.16
7026;BME280;3554;42.132;24.786;2023-02-22T11:01:21;99123.81;;;21.05;36.13
7026;BME280;3554;42.132;24.786;2023-02-22T11:03:58;99084.81;;;20.94;35.75
7026;BME280;3554;42.132;24.786;2023-02-22T11:06:26;99112.94;;;21.17;35.31
7026;BME280;3554;42.132;24.786;2023-02-22T11:09:04;99044.13;;;20.83;34.75
7026;BME280;3554;42.132;24.786;2023-02-22T11:11:35;99103.50;;;21.04;34.54
7026;BME280;3554;42.132;24.786;2023-02-22T11:14:02;99065.31;;;20.84;34.59
7026;BME280;3554;42.132;24.786;2023-02-22T11:16:32;99104.53;;;21.12;34.46
7026;BME280;3554;42.132;24.786;2023-02-22T11:19:02;99084.31;;;21.10;34.73
7026;BME280;3554;42.132;24.786;2023-02-22T11:21:32;99095.41;;;21.15;34.65
7026;BME280;3554;42.132;24.786;2023-02-22T11:24:06;99044.16;;;20.92;34.49
7026;BME280;3554;42.132;24.786;2023-02-22T11:26:40;99084.94;;;21.23;34.30
7026;BME280;3554;42.132;24.786;2023-02-22T11:29:16;99076.53;;;21.27;33.83
7026;BME280;3554;42.132;24.786;2023-02-22T11:31:45;99077.00;;;21.52;34.10
7026;BME280;3554;42.132;24.786;2023-02-22T11:34:29;99068.44;;;21.39;33.67
7026;BME280;3554;42.132;24.786;2023-02-22T11:37:15;99081.88;;;21.37;33.46
7026;BME280;3554;42.132;24.786;2023-02-22T11:39:44;99073.63;;;21.40;32.90
7026;BME280;3554;42.132;24.786;2023-02-22T11:42:20;99043.19;;;21.23;33.10
7026;BME280;3554;42.132;24.786;2023-02-22T11:44:47;99070.81;;;21.32;32.47
7026;BME280;3554;42.132;24.786;2023-02-22T11:47:14;99066.75;;;21.38;32.85
7026;BME280;3554;42.132;24.786;2023-02-22T11:49:43;99062.81;;;21.42;31.47
7026;BME280;3554;42.132;24.786;2023-02-22T11:52:23;99062.56;;;21.45;31.23
7026;BME280;3554;42.132;24.786;2023-02-22T11:55:06;99054.97;;;21.40;31.79
7026;BME280;3554;42.132;24.786;2023-02-22T11:57:46;99004.06;;;21.14;31.72
7026;BME280;3554;42.132;24.786;2023-02-22T12:00:20;99040.94;;;21.38;32.03
7026;BME280;3554;42.132;24.786;2023-02-22T12:06:20;99020.22;;;21.32;31.77
7026;BME280;3554;42.132;24.786;2023-02-22T12:09:01;99043.91;;;21.35;32.58
7026;BME280;3554;42.132;24.786;2023-02-22T12:11:34;99031.56;;;20.94;32.46
7026;BME280;3554;42.132;24.786;2023-02-22T12:14:16;99023.38;;;21.16;32.75
7026;BME280;3554;42.132;24.786;2023-02-22T12:17:08;99023.97;;;21.29;32.42
7026;BME280;3554;42.132;24.786;2023-02-22T12:19:41;99009.53;;;21.22;31.57
7026;BME280;3554;42.132;24.786;2023-02-22T12:22:12;99000.13;;;21.18;31.33
7026;BME280;3554;42.132;24.786;2023-02-22T12:24:43;99021.34;;;21.39;31.66
7026;BME280;3554;42.132;24.786;2023-02-22T12:27:17;99006.47;;;21.37;32.24
7026;BME280;3554;42.132;24.786;2023-02-22T12:29:48;98971.72;;;21.28;32.35
7026;BME280;3554;42.132;24.786;2023-02-22T12:32:26;99020.50;;;21.58;32.71
7026;BME280;3554;42.132;24.786;2023-02-22T12:34:56;98995.25;;;21.52;32.06
7026;BME280;3554;42.132;24.786;2023-02-22T12:37:27;99003.25;;;21.52;31.74
7026;BME280;3554;42.132;24.786;2023-02-22T12:40:02;99004.97;;;21.63;31.63
7026;BME280;3554;42.132;24.786;2023-02-22T12:42:42;99013.50;;;21.57;32.10
7026;BME280;3554;42.132;24.786;2023-02-22T12:45:12;99000.88;;;21.49;32.23
7026;BME280;3554;42.132;24.786;2023-02-22T12:47:47;98995.13;;;21.44;32.78
7026;BME280;3554;42.132;24.786;2023-02-22T12:50:21;98997.38;;;21.49;32.39
7026;BME280;3554;42.132;24.786;2023-02-22T12:52:52;98993.03;;;21.48;32.03
7026;BME280;3554;42.132;24.786;2023-02-22T12:55:23;98995.16;;;21.54;32.42
7026;BME280;3554;42.132;24.786;2023-02-22T12:57:55;98986.59;;;21.50;32.14
7026;BME280;3554;42.132;24.786;2023-02-22T13:00:27;98987.41;;;21.51;32.06
7026;BME280;3554;42.132;24.786;2023-02-22T13:02:59;98978.31;;;21.44;31.71
7026;BME280;3554;42.132;24.786;2023-02-22T13:05:29;98980.13;;;21.53;32.24
7026;BME280;3554;42.132;24.786;2023-02-22T13:08:12;98986.59;;;21.50;32.20
7026;BME280;3554;42.132;24.786;2023-02-22T13:10:55;98965.56;;;21.38;32.43
7026;BME280;3554;42.132;24.786;2023-02-22T13:13:33;98826.81;;;20.64;32.31
7026;BME280;3554;42.132;24.786;2023-02-22T13:16:09;98992.91;;;21.59;32.42
7026;BME280;3554;42.132;24.786;2023-02-22T13:18:46;98969.75;;;21.50;32.17
7026;BME280;3554;42.132;24.786;2023-02-22T13:21:19;98909.63;;;21.09;32.22
7026;BME280;3554;42.132;24.786;2023-02-22T13:23:52;98988.81;;;21.55;32.58
7026;BME280;3554;42.132;24.786;2023-02-22T13:26:30;98940.47;;;21.31;31.83
7026;BME280;3554;42.132;24.786;2023-02-22T13:29:09;98972.13;;;21.53;32.37
7026;BME280;3554;42.132;24.786;2023-02-22T13:31:49;98980.13;;;21.62;32.32
7026;BME280;3554;42.132;24.786;2023-02-22T13:34:40;98972.72;;;21.66;32.70